sensor_id;sensor_type;location;lat;lon;timestamp;pressure;altitude;pressure_sealevel;temperature;humidity
6514;BME280;3290;47.716;9.070;2023-04-02T00:00:17;96316.19;;;9.93;95.83
6514;BME280;3290;47.716;9.070;2023-04-02T00:07:49;96322.00;;;9.95;95.29
6514;BME280;3290;47.716;9.070;2023-04-02T00:10:37;96315.59;;;9.50;95.74
6514;BME280;3290;47.716;9.070;2023-04-02T00:15:33;96322.09;;;9.59;97.34
6514;BME280;3290;47.716;9.070;2023-04-02T00:17:59;96325.84;;;9.63;96.27
6514;BME280;3290;47.716;9.070;2023-04-02T00:20:26;96322.84;;;9.48;96.33
6514;BME280;3290;47.716;9.070;2023-04-02T00:22:52;96331.78;;;9.70;96.04
6514;BME280;3290;47.716;9.070;2023-04-02T00:25:18;96334.31;;;9.47;96.55
6514;BME280;3290;47.716;9.070;2023-04-02T00:27:43;96329.66;;;9.78;94.62
6514;BME280;3290;47.716;9.070;2023-04-02T00:30:11;96324.09;;;9.75;94.92
6514;BME280;3290;47.716;9.070;2023-04-02T00:32:37;96338.75;;;9.76;94.80
6514;BME280;3290;47.716;9.070;2023-04-02T00:35:29;96335.75;;;9.61;94.98
6514;BME280;3290;47.716;9.070;2023-04-02T00:37:55;96330.19;;;9.69;95.52
6514;BME280;3290;47.716;9.070;2023-04-02T00:40:28;96335.88;;;9.66;95.62
6514;BME280;3290;47.716;9.070;2023-04-02T00:42:57;96329.84;;;9.65;95.27
6514;BME280;3290;47.716;9.070;2023-04-02T00:45:25;96326.06;;;9.61;96.86
6514;BME280;3290;47.716;9.070;2023-04-02T00:47:53;96330.75;;;9.71;96.78
6514;BME280;3290;47.716;9.070;2023-04-02T00:50:39;96330.19;;;9.69;98.31
6514;BME280;3290;47.716;9.070;2023-04-02T00:53:14;96331.16;;;9.57;98.33
6514;BME280;3290;47.716;9.070;2023-04-02T00:55:42;96329.13;;;9.58;98.59
6514;BME280;3290;47.716;9.070;2023-04-02T00:58:21;96334.53;;;9.75;98.24
6514;BME280;3290;47.716;9.070;2023-04-02T01:00:50;96333.13;;;9.61;98.28
6514;BME280;3290;47.716;9.070;2023-04-02T01:05:43;96337.66;;;9.54;100.00
6514;BME280;3290;47.716;9.070;2023-04-02T01:11:35;96330.22;;;9.40;100.00
6514;BME280;3290;47.716;9.070;2023-04-02T01:14:38;96330.16;;;9.57;100.00
6514;BME280;3290;47.716;9.070;2023-04-02T01:28:09;96332.16;;;9.44;100.00
6514;BME280;3290;47.716;9.070;2023-04-02T01:30:39;96340.28;;;9.65;98.68
6514;BME280;3290;47.716;9.070;2023-04-02T01:33:08;96342.59;;;9.44;99.93
6514;BME280;3290;47.716;9.070;2023-04-02T01:35:37;96333.41;;;9.42;100.00
6514;BME280;3290;47.716;9.070;2023-04-02T01:38:12;96333.34;;;9.30;100.00
6514;BME280;3290;47.716;9.070;2023-04-02T01:40:52;96339.13;;;9.32;100.00
6514;BME280;3290;47.716;9.070;2023-04-02T01:43:39;96334.13;;;9.31;99.83
6514;BME280;3290;47.716;9.070;2023-04-02T01:46:31;96332.31;;;9.31;100.00
6514;BME280;3290;47.716;9.070;2023-04-02T01:49:11;96332.75;;;9.28;100.00
6514;BME280;3290;47.716;9.070;2023-04-02T01:51:41;96328.44;;;9.22;100.00
6514;BME280;3290;47.716;9.070;2023-04-02T01:54:06;96335.34;;;9.46;100.00
6514;BME280;3290;47.716;9.070;2023-04-02T01:56:33;96332.63;;;9.23;100.00
6514;BME280;3290;47.716;9.070;2023-04-02T01:59:00;96334.59;;;9.28;100.00
6514;BME280;3290;47.716;9.070;2023-04-02T02:01:35;96329.84;;;9.36;100.00
6514;BME280;3290;47.716;9.070;2023-04-02T02:04:03;96327.53;;;9.28;100.00
6514;BME280;3290;47.716;9.070;2023-04-02T02:06:29;96326.69;;;9.46;100.00
6514;BME280;3290;47.716;9.070;2023-04-02T02:08:58;96325.78;;;9.40;100.00
6514;BME280;3290;47.716;9.070;2023-04-02T02:11:28;96331.19;;;9.27;100.00
6514;BME280;3290;47.716;9.070;2023-04-02T02:13:56;96335.53;;;9.33;100.00
6514;BME280;3290;47.716;9.070;2023-04-02T02:16:22;96344.88;;;9.41;100.00
6514;BME280;3290;47.716;9.070;2023-04-02T02:18:50;96346.88;;;9.27;100.00
6514;BME280;3290;47.716;9.070;2023-04-02T02:21:38;96350.91;;;9.23;100.00
6514;BME280;3290;47.716;9.070;2023-04-02T02:24:26;96352.31;;;9.26;100.00
6514;BME280;3290;47.716;9.070;2023-04-02T02:27:16;96356.22;;;9.35;100.00
6514;BME280;3290;47.716;9.070;2023-04-02T02:29:51;96358.00;;;9.34;100.00
6514;BME280;3290;47.716;9.070;2023-04-02T02:32:19;96371.38;;;9.26;100.00
6514;BME280;3290;47.716;9.070;2023-04-02T02:34:51;96366.00;;;9.39;100.00
6514;BME280;3290;47.716;9.070;2023-04-02T02:37:28;96372.25;;;9.38;100.00
6514;BME280;3290;47.716;9.070;2023-04-02T02:39:58;96376.19;;;9.58;100.00
6514;BME280;3290;47.716;9.070;2023-04-02T02:42:33;96367.16;;;9.43;100.00
6514;BME280;3290;47.716;9.070;2023-04-02T02:45:04;96376.09;;;9.36;100.00
6514;BME280;3290;47.716;9.070;2023-04-02T02:47:33;96379.22;;;9.44;100.00
6514;BME280;3290;47.716;9.070;2023-04-02T02:50:06;96373.25;;;9.37;100.00
6514;BME280;3290;47.716;9.070;2023-04-02T02:52:37;96377.34;;;9.33;100.00
6514;BME280;3290;47.716;9.070;2023-04-02T02:57:46;96370.66;;;9.19;100.00
6514;BME280;3290;47.716;9.070;2023-04-02T03:00:13;96374.44;;;9.23;100.00
6514;BME280;3290;47.716;9.070;2023-04-02T03:02:40;96375.38;;;9.29;100.00
6514;BME280;3290;47.716;9.070;2023-04-02T03:05:08;96380.97;;;9.32;100.00
6514;BME280;3290;47.716;9.070;2023-04-02T03:07:34;96378.84;;;9.41;100.00
6514;BME280;3290;47.716;9.070;2023-04-02T03:13:17;96390.38;;;9.51;100.00
6514;BME280;3290;47.716;9.070;2023-04-02T03:23:42;96401.22;;;9.37;100.00
6514;BME280;3290;47.716;9.070;2023-04-02T03:28:49;96405.72;;;9.48;100.00
6514;BME280;3290;47.716;9.070;2023-04-02T03:34:04;96414.22;;;9.43;100.00
6514;BME280;3290;47.716;9.070;2023-04-02T03:36:37;96416.38;;;9.46;100.00
6514;BME280;3290;47.716;9.070;2023-04-02T03:41:40;96415.94;;;9.67;100.00
6514;BME280;3290;47.716;9.070;2023-04-02T03:44:43;96416.53;;;9.51;100.00
6514;BME280;3290;47.716;9.070;2023-04-02T03:50:00;96420.25;;;9.44;100.00
6514;BME280;3290;47.716;9.070;2023-04-02T03:52:28;96419.00;;;9.46;100.00
6514;BME280;3290;47.716;9.070;2023-04-02T03:54:56;96426.09;;;9.57;100.00
6514;BME280;3290;47.716;9.070;2023-04-02T03:57:36;96430.75;;;9.55;100.00
6514;BME280;3290;47.716;9.070;2023-04-02T04:03:13;96426.25;;;9.44;100.00
6514;BME280;3290;47.716;9.070;2023-04-02T04:05:47;96431.84;;;9.48;100.00
6514;BME280;3290;47.716;9.070;2023-04-02T04:08:28;96435.03;;;9.50;100.00
6514;BME280;3290;47.716;9.070;2023-04-02T04:11:00;96430.75;;;9.55;100.00
6514;BME280;3290;47.716;9.070;2023-04-02T04:13:38;96435.56;;;9.40;100.00
6514;BME280;3290;47.716;9.070;2023-04-02T04:16:11;96429.03;;;9.49;99.29
6514;BME280;3290;47.716;9.070;2023-04-02T04:19:02;96426.81;;;9.64;99.69
6514;BME280;3290;47.716;9.070;2023-04-02T04:21:29;96435.03;;;9.50;100.00
6514;BME280;3290;47.716;9.070;2023-04-02T04:24:10;96438.47;;;9.68;99.74
6514;BME280;3290;47.716;9.070;2023-04-02T04:26:46;96438.97;;;9.58;100.00
6514;BME280;3290;47.716;9.070;2023-04-02T04:32:24;96443.44;;;9.87;99.08
6514;BME280;3290;47.716;9.070;2023-04-02T04:35:01;96439.41;;;9.56;100.00
6514;BME280;3290;47.716;9.070;2023-04-02T04:37:35;96438.47;;;9.68;99.83
6514;BME280;3290;47.716;9.070;2023-04-02T04:40:25;96446.09;;;9.52;100.00
6514;BME280;3290;47.716;9.070;2023-04-02T04:42:54;96455.38;;;9.48;100.00
6514;BME280;3290;47.716;9.070;2023-04-02T04:45:39;96461.88;;;9.45;99.65
6514;BME280;3290;47.716;9.070;2023-04-02T04:48:15;96464.97;;;9.36;99.91
6514;BME280;3290;47.716;9.070;2023-04-02T04:53:17;96464.91;;;9.42;98.71
6514;BME280;3290;47.716;9.070;2023-04-02T04:55:45;96466.63;;;9.48;98.18
6514;BME280;3290;47.716;9.070;2023-04-02T04:58:31;96478.41;;;9.57;98.09
6514;BME280;3290;47.716;9.070;2023-04-02T05:06:21;96486.13;;;9.52;98.28
6514;BME280;3290;47.716;9.070;2023-04-02T05:08:51;96488.84;;;9.57;97.68
6514;BME280;3290;47.716;9.070;2023-04-02T05:11:30;96482.63;;;9.40;98.17
6514;BME280;3290;47.716;9.070;2023-04-02T05:14:01;96488.22;;;9.26;99.87
6514;BME280;3290;47.716;9.070;2023-04-02T05:16:47;96489.75;;;9.51;99.17
6514;BME280;3290;47.716;9.070;2023-04-02T05:19:24;96496.94;;;9.56;98.74
6514;BME280;3290;47.716;9.070;2023-04-02T05:21:59;96501.00;;;9.34;98.87
6514;BME280;3290;47.716;9.070;2023-04-02T05:26:57;96503.41;;;9.89;95.04
6514;BME280;3290;47.716;9.070;2023-04-02T05:29:28;96509.91;;;9.80;96.67
6514;BME280;3290;47.716;9.070;2023-04-02T05:32:09;96508.50;;;9.66;96.92
6514;BME280;3290;47.716;9.070;2023-04-02T05:34:39;96510.81;;;9.74;96.99
6514;BME280;3290;47.716;9.070;2023-04-02T05:37:13;96512.41;;;9.75;96.72
6514;BME280;3290;47.716;9.070;2023-04-02T05:39:44;96516.03;;;9.38;97.55
6514;BME280;3290;47.716;9.070;2023-04-02T05:42:22;96519.44;;;9.57;96.70
6514;BME280;3290;47.716;9.070;2023-04-02T05:47:28;96524.31;;;9.89;95.42
6514;BME280;3290;47.716;9.070;2023-04-02T05:52:32;96532.03;;;9.84;95.58
6514;BME280;3290;47.716;9.070;2023-04-02T05:55:29;96532.59;;;9.86;95.81
6514;BME280;3290;47.716;9.070;2023-04-02T06:01:22;96547.44;;;9.74;96.16
6514;BME280;3290;47.716;9.070;2023-04-02T06:03:54;96546.28;;;9.70;96.09
6514;BME280;3290;47.716;9.070;2023-04-02T06:09:17;96556.16;;;9.86;95.41
6514;BME280;3290;47.716;9.070;2023-04-02T06:11:46;96549.06;;;9.93;94.58
6514;BME280;3290;47.716;9.070;2023-04-02T06:14:15;96552.81;;;9.97;94.89
6514;BME280;3290;47.716;9.070;2023-04-02T06:16:43;96548.53;;;10.02;94.10
6514;BME280;3290;47.716;9.070;2023-04-02T06:19:16;96561.88;;;9.76;95.43
6514;BME280;3290;47.716;9.070;2023-04-02T06:21:46;96557.72;;;9.87;95.06
6514;BME280;3290;47.716;9.070;2023-04-02T06:24:17;96551.56;;;9.99;93.74
6514;BME280;3290;47.716;9.070;2023-04-02T06:26:50;96554.88;;;9.95;93.93
6514;BME280;3290;47.716;9.070;2023-04-02T06:31:57;96559.69;;;10.27;92.95
6514;BME280;3290;47.716;9.070;2023-04-02T06:34:25;96560.38;;;10.51;92.36
6514;BME280;3290;47.716;9.070;2023-04-02T06:36:58;96563.84;;;10.16;93.43
6514;BME280;3290;47.716;9.070;2023-04-02T06:39:26;96568.00;;;10.06;93.85
6514;BME280;3290;47.716;9.070;2023-04-02T06:41:58;96572.56;;;10.28;93.25
6514;BME280;3290;47.716;9.070;2023-04-02T06:44:27;96573.56;;;10.45;92.92
6514;BME280;3290;47.716;9.070;2023-04-02T06:47:21;96577.97;;;10.15;93.47
6514;BME280;3290;47.716;9.070;2023-04-02T06:52:30;96583.41;;;10.61;91.46
6514;BME280;3290;47.716;9.070;2023-04-02T06:54:58;96585.91;;;10.56;91.12
6514;BME280;3290;47.716;9.070;2023-04-02T06:57:24;96588.09;;;10.99;89.81
6514;BME280;3290;47.716;9.070;2023-04-02T06:59:49;96589.81;;;10.65;90.45
6514;BME280;3290;47.716;9.070;2023-04-02T07:04:43;96591.00;;;10.80;89.74
6514;BME280;3290;47.716;9.070;2023-04-02T07:07:09;96598.81;;;11.09;88.02
6514;BME280;3290;47.716;9.070;2023-04-02T07:09:34;96601.03;;;11.35;87.29
6514;BME280;3290;47.716;9.070;2023-04-02T07:12:00;96604.41;;;11.13;85.24
6514;BME280;3290;47.716;9.070;2023-04-02T07:14:25;96603.63;;;11.12;85.41
6514;BME280;3290;47.716;9.070;2023-04-02T07:16:51;96599.50;;;11.05;86.01
6514;BME280;3290;47.716;9.070;2023-04-02T07:19:19;96605.34;;;11.41;84.40
6514;BME280;3290;47.716;9.070;2023-04-02T07:21:45;96613.22;;;11.41;83.91
6514;BME280;3290;47.716;9.070;2023-04-02T07:24:11;96607.00;;;11.64;83.65
6514;BME280;3290;47.716;9.070;2023-04-02T07:26:37;96614.88;;;11.87;83.50
6514;BME280;3290;47.716;9.070;2023-04-02T07:29:06;96616.50;;;11.65;84.66
6514;BME280;3290;47.716;9.070;2023-04-02T07:31:31;96622.63;;;12.05;82.85
6514;BME280;3290;47.716;9.070;2023-04-02T07:33:58;96619.44;;;12.03;80.13
6514;BME280;3290;47.716;9.070;2023-04-02T07:36:25;96623.50;;;12.22;80.10
6514;BME280;3290;47.716;9.070;2023-04-02T07:38:51;96624.22;;;12.06;80.69
6514;BME280;3290;47.716;9.070;2023-04-02T07:41:17;96620.81;;;11.83;80.71
6514;BME280;3290;47.716;9.070;2023-04-02T07:43:44;96628.81;;;11.99;81.37
6514;BME280;3290;47.716;9.070;2023-04-02T07:46:11;96627.75;;;12.11;80.64
6514;BME280;3290;47.716;9.070;2023-04-02T07:48:38;96623.47;;;12.44;80.59
6514;BME280;3290;47.716;9.070;2023-04-02T07:51:11;96637.91;;;12.08;80.55
6514;BME280;3290;47.716;9.070;2023-04-02T07:53:38;96635.63;;;11.77;81.08
6514;BME280;3290;47.716;9.070;2023-04-02T07:56:06;96636.75;;;12.27;80.69
6514;BME280;3290;47.716;9.070;2023-04-02T07:58:32;96631.28;;;12.17;80.50
6514;BME280;3290;47.716;9.070;2023-04-02T08:00:59;96640.09;;;12.11;80.01
6514;BME280;3290;47.716;9.070;2023-04-02T08:03:25;96642.44;;;12.35;77.83
6514;BME280;3290;47.716;9.070;2023-04-02T08:05:56;96638.41;;;12.44;78.42
6514;BME280;3290;47.716;9.070;2023-04-02T08:08:23;96642.19;;;12.37;78.27
6514;BME280;3290;47.716;9.070;2023-04-02T08:10:49;96633.13;;;12.55;77.78
6514;BME280;3290;47.716;9.070;2023-04-02T08:13:16;96633.59;;;12.52;76.47
6514;BME280;3290;47.716;9.070;2023-04-02T08:15:43;96635.56;;;12.45;78.02
6514;BME280;3290;47.716;9.070;2023-04-02T08:18:09;96638.66;;;12.70;76.75
6514;BME280;3290;47.716;9.070;2023-04-02T08:20:35;96643.03;;;12.65;77.10
6514;BME280;3290;47.716;9.070;2023-04-02T08:23:01;96636.94;;;13.15;74.92
6514;BME280;3290;47.716;9.070;2023-04-02T08:25:27;96643.94;;;13.25;73.95
6514;BME280;3290;47.716;9.070;2023-04-02T08:27:53;96646.50;;;13.37;73.16
6514;BME280;3290;47.716;9.070;2023-04-02T08:30:19;96652.53;;;12.66;74.55
6514;BME280;3290;47.716;9.070;2023-04-02T08:32:44;96648.00;;;13.17;72.58
6514;BME280;3290;47.716;9.070;2023-04-02T08:35:15;96663.44;;;13.57;70.84
6514;BME280;3290;47.716;9.070;2023-04-02T08:37:41;96654.66;;;14.00;69.35
6514;BME280;3290;47.716;9.070;2023-04-02T08:40:12;96658.97;;;14.44;65.72
6514;BME280;3290;47.716;9.070;2023-04-02T08:42:51;96661.19;;;14.14;67.44
6514;BME280;3290;47.716;9.070;2023-04-02T08:45:53;96665.38;;;14.10;67.30
6514;BME280;3290;47.716;9.070;2023-04-02T08:48:20;96655.25;;;14.61;67.25
6514;BME280;3290;47.716;9.070;2023-04-02T08:50:47;96661.13;;;14.89;64.51
6514;BME280;3290;47.716;9.070;2023-04-02T08:53:21;96648.28;;;16.17;61.30
6514;BME280;3290;47.716;9.070;2023-04-02T08:56:11;96667.72;;;15.39;61.25
6514;BME280;3290;47.716;9.070;2023-04-02T08:59:01;96671.63;;;15.32;60.26
6514;BME280;3290;47.716;9.070;2023-04-02T09:04:20;96655.78;;;15.32;62.53
6514;BME280;3290;47.716;9.070;2023-04-02T09:06:47;96662.41;;;15.65;60.80
6514;BME280;3290;47.716;9.070;2023-04-02T09:09:14;96663.75;;;16.91;58.07
6514;BME280;3290;47.716;9.070;2023-04-02T09:14:20;96672.41;;;15.32;61.00
6514;BME280;3290;47.716;9.070;2023-04-02T09:16:52;96673.44;;;15.05;61.12
6514;BME280;3290;47.716;9.070;2023-04-02T09:24:26;96681.22;;;15.69;59.79
6514;BME280;3290;47.716;9.070;2023-04-02T09:26:51;96681.94;;;15.91;58.71
6514;BME280;3290;47.716;9.070;2023-04-02T09:29:41;96684.16;;;16.08;59.94
6514;BME280;3290;47.716;9.070;2023-04-02T09:32:22;96686.03;;;15.77;58.77
6514;BME280;3290;47.716;9.070;2023-04-02T09:34:49;96686.91;;;15.30;59.80
6514;BME280;3290;47.716;9.070;2023-04-02T09:37:17;96695.44;;;15.37;60.09
6514;BME280;3290;47.716;9.070;2023-04-02T09:39:44;96696.41;;;15.31;60.02
6514;BME280;3290;47.716;9.070;2023-04-02T09:42:31;96700.09;;;16.54;58.43
6514;BME280;3290;47.716;9.070;2023-04-02T09:45:29;96704.94;;;16.72;55.17
6514;BME280;3290;47.716;9.070;2023-04-02T09:47:55;96704.16;;;16.31;58.03
6514;BME280;3290;47.716;9.070;2023-04-02T09:50:31;96707.75;;;15.53;58.29
6514;BME280;3290;47.716;9.070;2023-04-02T09:52:58;96710.44;;;15.58;58.22
6514;BME280;3290;47.716;9.070;2023-04-02T09:55:27;96717.94;;;16.79;56.00
6514;BME280;3290;47.716;9.070;2023-04-02T09:58:11;96718.84;;;15.55;58.05
6514;BME280;3290;47.716;9.070;2023-04-02T10:00:38;96721.91;;;15.68;57.87
6514;BME280;3290;47.716;9.070;2023-04-02T10:03:22;96726.28;;;15.31;58.96
6514;BME280;3290;47.716;9.070;2023-04-02T10:06:02;96728.03;;;14.62;61.63
6514;BME280;3290;47.716;9.070;2023-04-02T10:08:29;96731.56;;;14.51;61.61
6514;BME280;3290;47.716;9.070;2023-04-02T10:10:58;96737.19;;;14.97;61.96
6514;BME280;3290;47.716;9.070;2023-04-02T10:13:33;96737.19;;;14.22;62.57
6514;BME280;3290;47.716;9.070;2023-04-02T10:16:18;96736.59;;;14.37;63.75
6514;BME280;3290;47.716;9.070;2023-04-02T10:18:56;96745.81;;;14.34;63.63
6514;BME280;3290;47.716;9.070;2023-04-02T10:21:28;96742.09;;;14.14;64.41
6514;BME280;3290;47.716;9.070;2023-04-02T10:23:56;96745.00;;;14.50;63.63
6514;BME280;3290;47.716;9.070;2023-04-02T10:26:27;96748.09;;;14.84;64.08
6514;BME280;3290;47.716;9.070;2023-04-02T10:29:07;96736.25;;;16.13;58.46
6514;BME280;3290;47.716;9.070;2023-04-02T10:31:46;96733.25;;;16.72;56.52
6514;BME280;3290;47.716;9.070;2023-04-02T10:34:22;96738.56;;;16.36;58.21
6514;BME280;3290;47.716;9.070;2023-04-02T10:36:52;96747.47;;;15.94;57.90
6514;BME280;3290;47.716;9.070;2023-04-02T10:39:27;96745.84;;;15.62;58.15
6514;BME280;3290;47.716;9.070;2023-04-02T10:47:34;96760.34;;;14.53;65.59
6514;BME280;3290;47.716;9.070;2023-04-02T10:52:57;96754.00;;;14.91;65.89
6514;BME280;3290;47.716;9.070;2023-04-02T10:55:32;96762.97;;;14.37;67.48
6514;BME280;3290;47.716;9.070;2023-04-02T10:58:06;96765.00;;;14.30;66.49
6514;BME280;3290;47.716;9.070;2023-04-02T11:00:38;96766.75;;;14.08;68.50
6514;BME280;3290;47.716;9.070;2023-04-02T11:03:12;96770.22;;;14.62;65.57
6514;BME280;3290;47.716;9.070;2023-04-02T11:05:47;96771.13;;;15.10;63.63
6514;BME280;3290;47.716;9.070;2023-04-02T11:08:28;96769.47;;;15.25;63.02
6514;BME280;3290;47.716;9.070;2023-04-02T11:11:00;96762.59;;;15.98;61.35
6514;BME280;3290;47.716;9.070;2023-04-02T11:16:16;96762.59;;;15.46;62.49
6514;BME280;3290;47.716;9.070;2023-04-02T11:18:42;96766.00;;;15.20;60.27
6514;BME280;3290;47.716;9.070;2023-04-02T11:21:37;96781.81;;;15.20;61.30
6514;BME280;3290;47.716;9.070;2023-04-02T11:24:04;96776.44;;;15.31;63.62
6514;BME280;3290;47.716;9.070;2023-04-02T11:26:36;96768.06;;;15.65;61.78
6514;BME280;3290;47.716;9.070;2023-04-02T11:31:41;96777.09;;;14.47;64.43
6514;BME280;3290;47.716;9.070;2023-04-02T11:34:12;96782.69;;;14.50;64.64
6514;BME280;3290;47.716;9.070;2023-04-02T11:44:43;96787.97;;;14.67;64.21
6514;BME280;3290;47.716;9.070;2023-04-02T11:52:30;96773.34;;;15.18;63.32
6514;BME280;3290;47.716;9.070;2023-04-02T11:55:17;96769.66;;;15.93;61.68
6514;BME280;3290;47.716;9.070;2023-04-02T12:06:05;96766.88;;;16.76;57.31
6514;BME280;3290;47.716;9.070;2023-04-02T12:11:11;96769.94;;;16.99;53.13
6514;BME280;3290;47.716;9.070;2023-04-02T12:16:03;96771.09;;;16.72;56.82
6514;BME280;3290;47.716;9.070;2023-04-02T12:18:30;96768.59;;;17.63;54.50
6514;BME280;3290;47.716;9.070;2023-04-02T12:20:56;96766.75;;;17.68;52.32
6514;BME280;3290;47.716;9.070;2023-04-02T12:23:25;96764.69;;;18.00;50.80
6514;BME280;3290;47.716;9.070;2023-04-02T12:26:40;96766.72;;;17.58;52.55
6514;BME280;3290;47.716;9.070;2023-04-02T12:28:42;96773.47;;;18.25;49.31
6514;BME280;3290;47.716;9.070;2023-04-02T12:31:15;96767.09;;;18.60;48.52
6514;BME280;3290;47.716;9.070;2023-04-02T12:33:42;96769.72;;;18.01;49.08
6514;BME280;3290;47.716;9.070;2023-04-02T12:38:57;96777.72;;;18.50;47.37
6514;BME280;3290;47.716;9.070;2023-04-02T12:41:28;96780.88;;;18.67;48.44
6514;BME280;3290;47.716;9.070;2023-04-02T12:44:01;96778.47;;;18.81;47.63
6514;BME280;3290;47.716;9.070;2023-04-02T12:46:28;96774.28;;;18.50;47.57
6514;BME280;3290;47.716;9.070;2023-04-02T12:49:03;96771.09;;;18.13;47.31
6514;BME280;3290;47.716;9.070;2023-04-02T12:51:30;96767.31;;;17.85;47.74
6514;BME280;3290;47.716;9.070;2023-04-02T12:53:55;96770.03;;;18.29;47.11
6514;BME280;3290;47.716;9.070;2023-04-02T12:56:21;96774.25;;;18.35;46.39
6514;BME280;3290;47.716;9.070;2023-04-02T12:58:58;96770.53;;;18.51;48.84
6514;BME280;3290;47.716;9.070;2023-04-02T13:01:26;96772.13;;;18.12;47.12
6514;BME280;3290;47.716;9.070;2023-04-02T13:06:24;96771.63;;;18.50;45.14
6514;BME280;3290;47.716;9.070;2023-04-02T13:08:52;96769.50;;;18.32;46.06
6514;BME280;3290;47.716;9.070;2023-04-02T13:11:17;96773.19;;;18.56;46.23
6514;BME280;3290;47.716;9.070;2023-04-02T13:13:46;96769.66;;;19.05;47.48
6514;BME280;3290;47.716;9.070;2023-04-02T13:18:42;96768.44;;;18.48;45.03
6514;BME280;3290;47.716;9.070;2023-04-02T13:23:39;96767.31;;;18.79;45.89
6514;BME280;3290;47.716;9.070;2023-04-02T13:26:25;96759.09;;;18.80;45.82
6514;BME280;3290;47.716;9.070;2023-04-02T13:31:45;96769.19;;;18.78;46.63
6514;BME280;3290;47.716;9.070;2023-04-02T13:34:11;96760.91;;;19.04;45.80
6514;BME280;3290;47.716;9.070;2023-04-02T13:36:36;96763.13;;;18.48;46.35
6514;BME280;3290;47.716;9.070;2023-04-02T13:39:02;96760.47;;;18.13;46.05
6514;BME280;3290;47.716;9.070;2023-04-02T13:41:50;96769.97;;;18.74;46.15
6514;BME280;3290;47.716;9.070;2023-04-02T13:44:26;96755.16;;;18.23;45.47
6514;BME280;3290;47.716;9.070;2023-04-02T13:46:53;96756.22;;;18.12;45.53
6514;BME280;3290;47.716;9.070;2023-04-02T13:49:19;96761.00;;;18.35;44.69
6514;BME280;3290;47.716;9.070;2023-04-02T13:51:46;96757.53;;;18.49;44.23
6514;BME280;3290;47.716;9.070;2023-04-02T13:54:23;96758.53;;;19.03;43.75
6514;BME280;3290;47.716;9.070;2023-04-02T13:56:50;96757.81;;;18.48;43.93
6514;BME280;3290;47.716;9.070;2023-04-02T13:59:16;96754.63;;;19.48;42.69
6514;BME280;3290;47.716;9.070;2023-04-02T14:01:43;96754.72;;;19.24;43.54
6514;BME280;3290;47.716;9.070;2023-04-02T14:04:09;96764.31;;;19.20;42.23
6514;BME280;3290;47.716;9.070;2023-04-02T14:21:33;96766.16;;;19.19;42.57
6514;BME280;3290;47.716;9.070;2023-04-02T14:29:19;96765.22;;;20.01;41.53
6514;BME280;3290;47.716;9.070;2023-04-02T14:34:38;96776.41;;;18.48;42.62
6514;BME280;3290;47.716;9.070;2023-04-02T14:37:19;96771.63;;;18.50;43.15
6514;BME280;3290;47.716;9.070;2023-04-02T14:42:43;96779.25;;;17.92;43.98
6514;BME280;3290;47.716;9.070;2023-04-02T14:47:59;96775.28;;;18.74;44.08
6514;BME280;3290;47.716;9.070;2023-04-02T14:50:32;96771.97;;;19.31;42.95
6514;BME280;3290;47.716;9.070;2023-04-02T14:53:53;96774.75;;;18.62;42.51
6514;BME280;3290;47.716;9.070;2023-04-02T14:55:53;96774.81;;;18.22;43.75
6514;BME280;3290;47.716;9.070;2023-04-02T14:58:25;96786.94;;;17.13;45.89
6514;BME280;3290;47.716;9.070;2023-04-02T15:01:19;96792.53;;;17.17;49.83
6514;BME280;3290;47.716;9.070;2023-04-02T15:03:59;96798.75;;;16.24;52.24
6514;BME280;3290;47.716;9.070;2023-04-02T15:06:30;96816.06;;;15.58;55.28
6514;BME280;3290;47.716;9.070;2023-04-02T15:09:01;96799.22;;;15.63;55.79
6514;BME280;3290;47.716;9.070;2023-04-02T15:11:29;96805.88;;;15.45;58.01
6514;BME280;3290;47.716;9.070;2023-04-02T15:14:04;96822.03;;;14.89;64.85
6514;BME280;3290;47.716;9.070;2023-04-02T15:16:31;96826.72;;;15.04;66.63
6514;BME280;3290;47.716;9.070;2023-04-02T15:19:01;96830.31;;;14.60;70.94
6514;BME280;3290;47.716;9.070;2023-04-02T15:24:29;96832.16;;;14.60;75.61
6514;BME280;3290;47.716;9.070;2023-04-02T15:32:38;96839.16;;;14.05;83.68
6514;BME280;3290;47.716;9.070;2023-04-02T15:35:18;96838.59;;;14.03;84.81
6514;BME280;3290;47.716;9.070;2023-04-02T15:48:27;96851.31;;;13.95;91.04
6514;BME280;3290;47.716;9.070;2023-04-02T15:56:31;96842.22;;;13.86;89.02
6514;BME280;3290;47.716;9.070;2023-04-02T15:59:27;96841.00;;;13.77;90.49
6514;BME280;3290;47.716;9.070;2023-04-02T16:02:19;96845.41;;;13.88;91.49
6514;BME280;3290;47.716;9.070;2023-04-02T16:04:55;96847.41;;;13.98;88.30
6514;BME280;3290;47.716;9.070;2023-04-02T16:12:28;96857.06;;;13.92;84.85
6514;BME280;3290;47.716;9.070;2023-04-02T16:15:03;96854.66;;;13.91;83.10
6514;BME280;3290;47.716;9.070;2023-04-02T16:17:37;96862.16;;;14.10;82.87
6514;BME280;3290;47.716;9.070;2023-04-02T16:20:21;96855.41;;;14.30;84.54
6514;BME280;3290;47.716;9.070;2023-04-02T16:22:56;96864.34;;;14.01;81.83
6514;BME280;3290;47.716;9.070;2023-04-02T16:25:25;96863.84;;;14.16;84.08
6514;BME280;3290;47.716;9.070;2023-04-02T16:45:02;96889.09;;;14.00;84.09
6514;BME280;3290;47.716;9.070;2023-04-02T16:58:58;96902.88;;;14.19;79.18
6514;BME280;3290;47.716;9.070;2023-04-02T17:01:38;96915.78;;;13.93;77.83
6514;BME280;3290;47.716;9.070;2023-04-02T17:09:55;96922.00;;;13.87;78.15
6514;BME280;3290;47.716;9.070;2023-04-02T17:15:19;96932.53;;;13.48;77.58
6514;BME280;3290;47.716;9.070;2023-04-02T17:17:47;96938.66;;;13.64;77.14
6514;BME280;3290;47.716;9.070;2023-04-02T17:20:17;96936.84;;;13.65;76.89
6514;BME280;3290;47.716;9.070;2023-04-02T17:22:45;96936.03;;;13.64;76.73
6514;BME280;3290;47.716;9.070;2023-04-02T17:25:22;96943.81;;;13.71;76.21
6514;BME280;3290;47.716;9.070;2023-04-02T17:27:52;96936.94;;;13.70;78.78
6514;BME280;3290;47.716;9.070;2023-04-02T17:30:33;96949.53;;;13.68;77.86
6514;BME280;3290;47.716;9.070;2023-04-02T17:32:59;96952.66;;;13.65;78.50
6514;BME280;3290;47.716;9.070;2023-04-02T17:46:34;96974.84;;;13.58;78.47
6514;BME280;3290;47.716;9.070;2023-04-02T17:57:50;96985.97;;;13.48;80.03
6514;BME280;3290;47.716;9.070;2023-04-02T18:05:50;97006.00;;;13.38;80.19
6514;BME280;3290;47.716;9.070;2023-04-02T18:19:17;97024.16;;;13.05;82.83
6514;BME280;3290;47.716;9.070;2023-04-02T18:22:01;97034.38;;;13.13;80.34
6514;BME280;3290;47.716;9.070;2023-04-02T18:35:16;97057.81;;;12.74;80.27
6514;BME280;3290;47.716;9.070;2023-04-02T18:37:59;97069.06;;;12.81;79.54
6514;BME280;3290;47.716;9.070;2023-04-02T18:40:33;97070.59;;;13.00;78.98
6514;BME280;3290;47.716;9.070;2023-04-02T18:48:40;97091.28;;;12.67;81.02